SFS weather

Subic Bay International Airport
Olongapo City, Zambales Province, Philippines

Public forecast

Using degrees Celsius for public forecast. Weather courtesy of forecast.io.

Current aviation weather report (METAR) for Subic Bay International Airport

Retrieved 2019/10/21 14:00 UTC (32 minutes ago):

RPLB 211400Z 03004KT 350V050 9999 FEW020 SCT080 BKN300 27/24 Q101 RMK A2985

Aviation forecast (TAF) for Subic Bay International Airport

Retrieved 2019/10/21 12:00 UTC (3 hours ago):

TAF RPLB 211100Z 2112/2212 04004KT 9999 FEW020 SCT300 TX33/2206Z TN24/2120Z TEMPO 2112/2118 06010KT 6000 TS -SHRA FEW018CB SCT020 BKN080